Time;durP1;ratioP1;P1;durP2;ratioP2;P2;SDS_P1;SDS_P2;PMS_P1;PMS_P2;Temp;Humidity;BMP_temperature;BMP_pressure;BME280_temperature;BME280_humidity;BME280_pressure;Samples;Min_cycle;Max_cycle;Signal;HPM_P1;HPM_P2
2022/06/07 00:01:32;;;;;;;2.28;0.90;;;20.40;61.90;;;;;;5074585;28;20119;-63
2022/06/07 00:03:57;;;;;;;2.03;1.17;;;20.40;62.00;;;;;;5072650;28;20048;-63
2022/06/07 00:06:23;;;;;;;1.92;0.93;;;20.40;61.90;;;;;;5073586;28;20113;-63
2022/06/07 00:08:51;;;;;;;1.80;0.95;;;20.40;62.00;;;;;;5073851;28;20123;-63
2022/06/07 00:11:18;;;;;;;2.47;1.08;;;20.40;62.00;;;;;;5074513;28;20059;-63
2022/06/07 00:13:45;;;;;;;3.75;1.10;;;20.40;62.00;;;;;;5072855;28;20052;-63
2022/06/07 00:16:11;;;;;;;1.70;0.90;;;20.40;62.00;;;;;;5074398;28;20048;-63
2022/06/07 00:18:37;;;;;;;1.80;1.00;;;20.40;62.00;;;;;;5072619;28;20067;-63
2022/06/07 00:21:02;;;;;;;1.33;0.90;;;20.40;62.00;;;;;;5073271;28;20040;-63
2022/06/07 00:23:28;;;;;;;1.33;1.00;;;20.30;61.90;;;;;;5073747;28;20076;-63
2022/06/07 00:25:54;;;;;;;1.67;1.02;;;20.30;61.90;;;;;;5072880;28;20348;-63
2022/06/07 00:28:20;;;;;;;2.95;1.10;;;20.30;61.90;;;;;;5074433;28;20036;-64
2022/06/07 00:30:46;;;;;;;1.80;1.20;;;20.30;62.00;;;;;;5073691;28;20055;-63
2022/06/07 00:33:12;;;;;;;3.63;1.30;;;20.30;61.90;;;;;;5073325;28;20084;-63
2022/06/07 00:35:38;;;;;;;3.25;1.20;;;20.30;61.90;;;;;;5074061;28;20133;-63
2022/06/07 00:38:03;;;;;;;1.75;0.90;;;20.30;61.90;;;;;;5072413;28;20043;-63
2022/06/07 00:40:29;;;;;;;3.17;1.02;;;20.30;61.90;;;;;;5073178;28;20098;-63
2022/06/07 00:42:54;;;;;;;3.63;1.17;;;20.30;61.90;;;;;;5072978;28;20408;-64
2022/06/07 00:45:21;;;;;;;1.70;1.30;;;20.30;61.90;;;;;;5072639;28;20040;-63
2022/06/07 00:47:47;;;;;;;1.60;1.02;;;20.30;61.90;;;;;;5072693;28;20102;-63
2022/06/07 00:50:26;;;;;;;2.85;1.20;;;20.30;61.90;;;;;;5073671;28;20037;-63
2022/06/07 00:52:52;;;;;;;2.45;1.10;;;20.30;61.90;;;;;;5072250;28;20048;-64
2022/06/07 00:55:18;;;;;;;1.95;1.10;;;20.30;62.00;;;;;;5072470;28;20041;-64
2022/06/07 00:57:43;;;;;;;1.95;1.10;;;20.30;61.90;;;;;;5073083;28;20040;-64
2022/06/07 01:00:11;;;;;;;2.25;1.20;;;20.30;61.90;;;;;;5073609;28;20048;-64
2022/06/07 01:02:36;;;;;;;2.15;1.20;;;20.30;62.00;;;;;;5072626;28;20119;-63
2022/06/07 01:05:02;;;;;;;1.85;1.00;;;20.30;62.00;;;;;;5072850;28;20124;-63
2022/06/07 01:12:56;;;;;;;2.13;1.02;;;20.30;62.00;;;;;;5072774;28;20139;-63
2022/06/07 01:15:22;;;;;;;2.00;0.95;;;20.30;61.90;;;;;;5072349;28;20131;-63
2022/06/07 01:17:47;;;;;;;2.70;1.05;;;20.30;61.90;;;;;;5072292;28;20094;-63
2022/06/07 01:20:13;;;;;;;1.65;1.10;;;20.20;61.90;;;;;;5072237;28;20090;-63
2022/06/07 01:22:39;;;;;;;1.30;1.00;;;20.20;61.90;;;;;;5072096;28;20053;-63
2022/06/07 01:25:05;;;;;;;2.15;0.98;;;20.20;61.90;;;;;;5072732;28;20052;-63
2022/06/07 01:27:30;;;;;;;1.80;1.10;;;20.30;61.90;;;;;;5072819;28;20087;-63
2022/06/07 01:29:56;;;;;;;1.33;0.88;;;20.20;61.90;;;;;;5071891;28;20053;-63
2022/06/07 01:32:21;;;;;;;1.75;1.20;;;20.20;61.90;;;;;;5072981;28;20046;-63
2022/06/07 01:34:47;;;;;;;2.30;1.00;;;20.20;61.90;;;;;;5072424;28;20048;-63
2022/06/07 01:37:15;;;;;;;1.83;0.95;;;20.20;61.90;;;;;;5072242;28;20051;-63
2022/06/07 01:42:25;;;;;;;2.22;1.30;;;20.20;61.90;;;;;;5072420;28;20048;-63
2022/06/07 01:44:50;;;;;;;3.13;1.02;;;20.20;61.90;;;;;;5071337;28;20041;-63
2022/06/07 01:47:24;;;;;;;1.80;1.27;;;20.20;62.00;;;;;;5072855;28;20043;-63
2022/06/07 01:49:49;;;;;;;2.30;1.30;;;20.20;61.90;;;;;;5072387;28;20044;-63
2022/06/07 01:52:16;;;;;;;1.30;0.90;;;20.20;61.90;;;;;;5071293;28;20086;-63
2022/06/07 01:54:42;;;;;;;1.38;0.98;;;20.20;61.90;;;;;;5072066;28;20116;-63
2022/06/07 01:57:08;;;;;;;2.53;1.30;;;20.20;61.90;;;;;;5071936;28;20459;-64
2022/06/07 01:59:34;;;;;;;2.65;1.17;;;20.20;61.90;;;;;;5072610;28;20041;-63
2022/06/07 02:01:59;;;;;;;2.17;1.10;;;20.20;61.90;;;;;;5070987;28;20044;-63
2022/06/07 02:04:25;;;;;;;1.88;0.95;;;20.20;62.00;;;;;;5070869;28;20040;-63
2022/06/07 02:06:51;;;;;;;3.08;1.10;;;20.20;61.90;;;;;;5071379;28;20087;-63
2022/06/07 02:09:17;;;;;;;2.13;1.20;;;20.20;62.00;;;;;;5071868;28;20044;-63
2022/06/07 02:11:42;;;;;;;1.83;1.00;;;20.20;62.00;;;;;;5071093;28;20542;-63
2022/06/07 02:14:08;;;;;;;2.28;1.20;;;20.20;62.60;;;;;;5072415;28;20041;-63
2022/06/07 02:16:33;;;;;;;1.63;1.20;;;20.20;61.90;;;;;;5072344;28;20040;-63
2022/06/07 02:18:59;;;;;;;1.60;1.08;;;20.20;61.90;;;;;;5071394;28;20071;-63
2022/06/07 02:21:25;;;;;;;1.88;1.05;;;20.10;61.90;;;;;;5072309;28;20055;-63
2022/06/07 02:23:50;;;;;;;1.95;1.20;;;20.20;62.00;;;;;;5072051;28;20044;-63
2022/06/07 02:26:18;;;;;;;1.50;1.00;;;20.10;61.90;;;;;;5071672;28;20040;-63
2022/06/07 02:28:45;;;;;;;1.98;1.17;;;20.20;62.00;;;;;;5071063;28;20149;-63
2022/06/07 02:31:11;;;;;;;1.85;1.00;;;20.10;61.90;;;;;;5071709;28;20404;-63
2022/06/07 02:33:38;;;;;;;1.80;1.00;;;20.10;61.90;;;;;;5070268;28;20511;-63
2022/06/07 02:36:04;;;;;;;2.35;1.23;;;20.20;61.90;;;;;;5070959;28;20047;-63
2022/06/07 02:38:30;;;;;;;1.45;1.00;;;20.10;61.90;;;;;;5072269;28;20036;-63
2022/06/07 02:40:56;;;;;;;1.63;1.10;;;20.10;61.90;;;;;;5069777;28;20681;-63
2022/06/07 02:43:21;;;;;;;2.83;1.00;;;20.10;61.90;;;;;;5072335;28;20040;-63
2022/06/07 02:45:47;;;;;;;2.58;1.27;;;20.10;61.90;;;;;;5071781;28;20076;-63
2022/06/07 02:48:12;;;;;;;2.22;1.10;;;20.10;61.90;;;;;;5071330;28;20090;-63
2022/06/07 02:50:38;;;;;;;2.15;1.02;;;20.10;61.90;;;;;;5071542;28;20049;-63
2022/06/07 02:53:04;;;;;;;1.77;1.10;;;20.10;61.90;;;;;;5071915;28;20124;-63
2022/06/07 02:55:30;;;;;;;1.27;0.98;;;20.10;61.90;;;;;;5070810;28;20048;-63
2022/06/07 02:57:55;;;;;;;2.13;1.10;;;20.10;62.00;;;;;;5070696;28;20488;-63
2022/06/07 03:00:21;;;;;;;1.70;1.10;;;20.10;62.00;;;;;;5071786;28;20048;-63
2022/06/07 03:02:48;;;;;;;1.10;0.90;;;20.10;61.90;;;;;;5071633;28;20044;-63
2022/06/07 03:05:14;;;;;;;2.10;0.98;;;20.10;62.00;;;;;;5072050;28;20127;-63
2022/06/07 03:07:40;;;;;;;1.25;1.10;;;20.10;62.00;;;;;;5071266;28;20071;-64
2022/06/07 03:10:06;;;;;;;1.83;1.20;;;20.10;61.90;;;;;;5075379;28;20385;-63
2022/06/07 03:12:32;;;;;;;2.10;1.15;;;20.10;62.00;;;;;;5075750;28;20041;-63
2022/06/07 03:14:58;;;;;;;2.47;1.40;;;20.10;62.00;;;;;;5074454;28;20040;-63
2022/06/07 03:17:24;;;;;;;1.90;1.10;;;20.00;61.90;;;;;;5074652;28;20040;-63
2022/06/07 03:19:50;;;;;;;3.13;1.00;;;20.10;62.00;;;;;;5075163;28;20127;-63
2022/06/07 03:22:19;;;;;;;2.33;1.10;;;20.10;62.60;;;;;;5073050;28;20166;-63
2022/06/07 03:24:44;;;;;;;1.83;1.10;;;20.10;62.00;;;;;;5074745;28;20381;-63
2022/06/07 03:27:11;;;;;;;1.60;0.93;;;20.00;61.90;;;;;;5075423;28;20036;-63
2022/06/07 03:29:37;;;;;;;2.38;1.30;;;20.10;62.00;;;;;;5074599;28;20133;-63
2022/06/07 03:32:06;;;;;;;1.50;0.90;;;20.10;62.00;;;;;;5074716;28;20072;-63
2022/06/07 03:34:32;;;;;;;2.22;1.25;;;20.10;62.00;;;;;;5074818;28;20129;-63
2022/06/07 03:36:58;;;;;;;2.75;1.00;;;20.00;61.90;;;;;;5073867;28;20464;-63
2022/06/07 03:39:23;;;;;;;1.77;1.20;;;20.00;61.90;;;;;;5075051;28;20500;-63
2022/06/07 03:41:49;;;;;;;1.40;0.93;;;20.00;61.90;;;;;;5074894;28;20041;-63
2022/06/07 03:44:14;;;;;;;1.83;1.35;;;20.00;61.90;;;;;;5074288;28;20045;-63
2022/06/07 03:46:42;;;;;;;1.50;1.10;;;20.00;61.90;;;;;;5074369;28;20037;-63
2022/06/07 03:49:07;;;;;;;1.67;1.03;;;20.00;61.90;;;;;;5074773;28;20045;-62
2022/06/07 03:51:33;;;;;;;1.77;1.17;;;20.00;61.90;;;;;;5073304;28;20046;-62
2022/06/07 03:53:59;;;;;;;1.45;1.20;;;20.00;61.90;;;;;;5073457;28;20048;-62
2022/06/07 03:56:24;;;;;;;2.83;1.08;;;20.00;62.00;;;;;;5074439;28;20032;-63
2022/06/07 03:58:50;;;;;;;1.25;1.05;;;20.00;62.00;;;;;;5073796;28;20050;-63
2022/06/07 04:01:17;;;;;;;1.92;1.00;;;20.00;61.90;;;;;;5074294;28;20036;-63
2022/06/07 04:03:44;;;;;;;1.38;1.05;;;20.00;61.90;;;;;;5073624;28;20041;-63
2022/06/07 04:06:18;;;;;;;1.88;1.30;;;20.00;62.00;;;;;;5073529;28;20463;-63
2022/06/07 04:08:43;;;;;;;2.20;1.02;;;20.00;62.60;;;;;;5073197;28;20040;-62
2022/06/07 04:11:10;;;;;;;2.92;1.30;;;20.00;61.90;;;;;;5073846;28;20090;-62
2022/06/07 04:13:36;;;;;;;1.70;1.00;;;20.00;61.90;;;;;;5074387;28;20068;-63
2022/06/07 04:16:06;;;;;;;2.08;1.20;;;20.00;62.50;;;;;;5074177;28;20098;-62
2022/06/07 04:18:31;;;;;;;2.60;1.25;;;20.00;61.90;;;;;;5073112;28;20040;-63
2022/06/07 04:21:00;;;;;;;2.30;1.40;;;20.00;61.90;;;;;;5072999;28;20237;-63
2022/06/07 04:23:26;;;;;;;1.88;1.10;;;20.00;62.00;;;;;;5073885;28;20474;-63
2022/06/07 04:25:51;;;;;;;2.22;1.10;;;20.00;62.00;;;;;;5073243;28;20124;-63
2022/06/07 04:28:17;;;;;;;2.42;1.50;;;19.90;61.90;;;;;;5074122;28;20040;-63
2022/06/07 04:30:44;;;;;;;2.03;1.45;;;19.90;61.90;;;;;;5073899;28;20048;-63
2022/06/07 04:33:10;;;;;;;1.67;1.02;;;20.00;62.00;;;;;;5072724;28;20047;-62
2022/06/07 04:35:36;;;;;;;2.35;1.58;;;19.90;61.90;;;;;;5073941;28;20109;-62
2022/06/07 04:38:01;;;;;;;2.90;1.40;;;19.90;61.90;;;;;;5073638;28;20476;-63
2022/06/07 04:40:27;;;;;;;1.70;1.20;;;20.00;62.00;;;;;;5072562;28;20048;-63
2022/06/07 04:42:53;;;;;;;2.05;1.10;;;19.90;61.90;;;;;;5073270;28;20036;-63
2022/06/07 04:45:18;;;;;;;1.98;1.10;;;19.90;61.90;;;;;;5073684;28;20044;-62
2022/06/07 04:47:45;;;;;;;2.42;1.20;;;19.90;62.50;;;;;;5072503;28;20068;-63
2022/06/07 04:50:12;;;;;;;1.52;1.20;;;19.90;61.90;;;;;;5072718;28;20036;-62
2022/06/07 04:52:37;;;;;;;2.63;1.30;;;20.00;62.00;;;;;;5073223;28;20480;-63
2022/06/07 04:55:03;;;;;;;2.10;1.27;;;19.90;61.90;;;;;;5071700;28;20051;-63
2022/06/07 04:57:29;;;;;;;2.78;1.30;;;19.90;61.90;;;;;;5073538;28;20044;-63
2022/06/07 04:59:55;;;;;;;1.92;1.13;;;19.90;61.80;;;;;;5072735;28;20119;-62
2022/06/07 05:02:21;;;;;;;1.83;1.20;;;19.90;61.90;;;;;;5072716;28;20043;-63
2022/06/07 05:04:47;;;;;;;2.40;1.48;;;19.90;61.80;;;;;;5073326;28;20127;-63
2022/06/07 05:07:12;;;;;;;2.33;1.40;;;19.90;61.90;;;;;;5072640;28;20128;-63
2022/06/07 05:09:38;;;;;;;1.90;1.08;;;19.90;62.40;;;;;;5073221;28;20127;-63
2022/06/07 05:12:04;;;;;;;2.65;1.33;;;19.90;61.80;;;;;;5072559;28;20506;-62
2022/06/07 05:14:30;;;;;;;1.92;1.33;;;19.90;61.80;;;;;;5072422;28;20044;-62
2022/06/07 05:16:57;;;;;;;2.17;1.50;;;19.90;61.90;;;;;;5072737;28;20041;-65
2022/06/07 05:19:23;;;;;;;2.60;1.40;;;19.90;61.90;;;;;;5073226;28;20127;-62
2022/06/07 05:21:49;;;;;;;1.80;1.25;;;19.90;61.90;;;;;;5071968;28;20143;-62
2022/06/07 05:24:14;;;;;;;2.22;1.33;;;19.90;61.90;;;;;;5071570;28;20040;-63
2022/06/07 05:26:47;;;;;;;2.08;1.23;;;19.90;61.90;;;;;;5072451;28;20040;-63
2022/06/07 05:29:33;;;;;;;2.00;1.30;;;19.90;61.90;;;;;;5072128;28;20040;-63
2022/06/07 05:31:59;;;;;;;2.05;1.30;;;19.90;61.90;;;;;;5071434;28;20047;-63
2022/06/07 05:34:24;;;;;;;2.63;1.10;;;19.90;61.90;;;;;;5072678;28;20040;-63
2022/06/07 05:36:50;;;;;;;2.45;1.40;;;19.90;61.90;;;;;;5071703;28;20043;-63
2022/06/07 05:39:26;;;;;;;2.28;1.40;;;19.90;61.90;;;;;;5072421;28;20044;-63
2022/06/07 05:41:52;;;;;;;2.88;1.55;;;19.90;61.90;;;;;;5072272;28;20048;-63
2022/06/07 05:44:18;;;;;;;2.22;1.25;;;19.90;61.90;;;;;;5070763;28;20044;-63
2022/06/07 05:46:43;;;;;;;2.03;1.48;;;19.90;61.90;;;;;;5072499;28;20045;-63
2022/06/07 05:49:10;;;;;;;2.53;1.42;;;19.90;61.90;;;;;;5072235;28;20044;-62
2022/06/07 05:51:36;;;;;;;2.20;1.40;;;19.80;61.80;;;;;;5072786;28;20033;-62
2022/06/07 05:54:01;;;;;;;2.88;1.52;;;19.80;61.70;;;;;;5070870;28;20518;-63
2022/06/07 05:56:27;;;;;;;1.90;1.40;;;19.80;61.70;;;;;;5071940;28;20064;-62
2022/06/07 05:58:52;;;;;;;2.63;1.48;;;19.90;61.80;;;;;;5072022;28;20871;-62
2022/06/07 06:01:18;;;;;;;3.17;1.75;;;19.90;61.80;;;;;;5072462;28;20044;-63
2022/06/07 06:03:44;;;;;;;2.40;1.38;;;19.80;61.80;;;;;;5071643;28;20032;-62
2022/06/07 06:06:10;;;;;;;2.88;1.77;;;19.90;61.90;;;;;;5072386;28;20419;-62
2022/06/07 06:11:21;;;;;;;2.03;1.45;;;19.80;61.70;;;;;;5071742;28;20049;-63
2022/06/07 06:13:46;;;;;;;3.25;1.80;;;19.80;61.70;;;;;;5072217;28;20041;-63
2022/06/07 06:16:14;;;;;;;3.80;1.90;;;19.80;61.80;;;;;;5072484;28;20446;-63
2022/06/07 06:18:42;;;;;;;2.83;1.70;;;19.80;61.80;;;;;;5071495;28;20044;-63
2022/06/07 06:21:08;;;;;;;2.70;1.70;;;19.90;61.80;;;;;;5072465;28;20094;-63
2022/06/07 06:23:33;;;;;;;3.25;1.67;;;19.80;61.80;;;;;;5071893;28;20053;-63
2022/06/07 06:25:59;;;;;;;3.90;1.83;;;19.80;61.80;;;;;;5071028;28;20044;-63
2022/06/07 06:28:25;;;;;;;2.33;1.67;;;19.80;61.80;;;;;;5072168;28;20040;-62
2022/06/07 06:30:51;;;;;;;3.28;1.80;;;19.80;61.80;;;;;;5072106;28;20052;-63
2022/06/07 06:33:17;;;;;;;3.17;1.85;;;19.80;61.80;;;;;;5071452;28;20052;-63
2022/06/07 06:35:52;;;;;;;2.42;1.75;;;19.80;61.80;;;;;;5071779;28;20040;-63
2022/06/07 06:38:19;;;;;;;3.50;1.67;;;19.80;61.80;;;;;;5072080;28;20411;-63
2022/06/07 06:40:45;;;;;;;2.58;1.90;;;19.80;61.80;;;;;;5070410;28;20068;-63
2022/06/07 06:43:11;;;;;;;3.00;1.90;;;19.80;61.80;;;;;;5074023;28;20041;-63
2022/06/07 06:45:37;;;;;;;3.25;1.90;;;19.80;61.80;;;;;;5075307;28;20091;-63
2022/06/07 06:48:03;;;;;;;3.72;1.80;;;19.80;61.80;;;;;;5075911;28;20053;-63
2022/06/07 06:50:29;;;;;;;3.53;2.00;;;19.80;61.80;;;;;;5075918;28;20043;-63
2022/06/07 06:52:55;;;;;;;2.85;1.70;;;19.80;61.80;;;;;;5074558;28;20044;-63
2022/06/07 06:55:21;;;;;;;2.85;1.95;;;19.80;61.80;;;;;;5075608;28;20492;-63
2022/06/07 06:57:48;;;;;;;3.70;2.03;;;19.80;61.80;;;;;;5075162;28;20044;-62
2022/06/07 07:00:17;;;;;;;3.80;1.90;;;19.80;61.70;;;;;;5075079;28;20048;-62
2022/06/07 07:02:44;;;;;;;3.95;1.85;;;19.80;61.70;;;;;;5075222;28;20036;-62
2022/06/07 07:05:11;;;;;;;3.63;1.95;;;19.80;61.70;;;;;;5075576;28;20044;-62
2022/06/07 07:07:37;;;;;;;3.00;2.03;;;19.80;61.70;;;;;;5075033;28;20151;-62
2022/06/07 07:10:03;;;;;;;3.13;1.98;;;19.80;61.70;;;;;;5075129;28;20040;-62
2022/06/07 07:12:30;;;;;;;3.42;1.83;;;19.80;61.70;;;;;;5075617;28;20124;-62
2022/06/07 07:14:55;;;;;;;2.80;1.90;;;19.80;61.60;;;;;;5073146;28;20106;-62
2022/06/07 07:17:21;;;;;;;3.17;2.20;;;19.80;61.70;;;;;;5075577;28;20040;-63
2022/06/07 07:19:46;;;;;;;3.40;2.25;;;19.80;61.70;;;;;;5074871;28;20050;-62
2022/06/07 07:22:12;;;;;;;4.43;2.28;;;19.80;61.70;;;;;;5074182;28;20095;-62
2022/06/07 07:24:38;;;;;;;3.22;2.10;;;19.80;61.60;;;;;;5075194;28;20047;-62
2022/06/07 07:27:03;;;;;;;3.72;2.00;;;19.80;61.70;;;;;;5073795;28;20131;-62
2022/06/07 07:29:29;;;;;;;2.78;2.05;;;19.80;61.70;;;;;;5074426;28;20075;-62
2022/06/07 07:31:54;;;;;;;3.72;2.33;;;19.80;61.70;;;;;;5074783;28;20140;-63
2022/06/07 07:34:21;;;;;;;3.22;2.13;;;19.70;61.60;;;;;;5074790;28;20070;-63
2022/06/07 07:36:48;;;;;;;3.80;2.17;;;19.80;61.60;;;;;;5073896;28;20543;-62
2022/06/07 07:39:14;;;;;;;3.80;2.20;;;19.70;61.60;;;;;;5075046;28;20044;-63
2022/06/07 07:41:40;;;;;;;4.20;2.10;;;19.70;61.60;;;;;;5074632;28;20524;-63
2022/06/07 07:44:07;;;;;;;4.38;2.20;;;19.80;61.60;;;;;;5074590;28;20055;-63
2022/06/07 07:46:34;;;;;;;3.50;2.20;;;19.80;61.60;;;;;;5074860;28;20041;-63
2022/06/07 07:49:00;;;;;;;4.85;2.30;;;19.80;61.60;;;;;;5073552;28;20048;-63
2022/06/07 07:51:30;;;;;;;3.63;2.30;;;19.70;61.60;;;;;;5074928;28;20048;-63
2022/06/07 07:53:57;;;;;;;3.00;2.10;;;19.80;61.60;;;;;;5074253;28;20045;-62
2022/06/07 07:56:23;;;;;;;4.03;2.30;;;19.70;61.60;;;;;;5073903;28;20055;-62
2022/06/07 07:58:49;;;;;;;5.30;2.80;;;19.80;61.70;;;;;;5074312;28;20047;-63
2022/06/07 08:01:16;;;;;;;3.33;2.30;;;19.70;61.70;;;;;;5074851;28;20045;-63
2022/06/07 08:03:42;;;;;;;4.78;2.63;;;19.70;61.70;;;;;;5073284;28;20034;-63
2022/06/07 08:06:09;;;;;;;3.70;2.58;;;19.70;61.70;;;;;;5073229;28;20419;-63
2022/06/07 08:08:35;;;;;;;4.13;2.70;;;19.70;61.70;;;;;;5074153;28;20445;-62
2022/06/07 08:11:00;;;;;;;3.42;2.08;;;19.70;61.70;;;;;;5073353;28;20099;-63
2022/06/07 08:13:26;;;;;;;4.80;2.45;;;19.70;61.70;;;;;;5074318;28;20044;-63
2022/06/07 08:15:52;;;;;;;3.10;2.30;;;19.70;61.70;;;;;;5073741;28;20041;-62
2022/06/07 08:18:17;;;;;;;3.55;2.60;;;19.70;61.70;;;;;;5073571;28;20051;-63
2022/06/07 08:20:43;;;;;;;3.08;2.20;;;19.70;61.70;;;;;;5073978;28;20138;-63
2022/06/07 08:23:10;;;;;;;4.18;2.42;;;19.70;61.60;;;;;;5074061;28;20044;-63
2022/06/07 08:25:38;;;;;;;3.55;2.90;;;19.70;61.70;;;;;;5073021;28;20492;-63
2022/06/07 08:28:04;;;;;;;4.13;2.50;;;19.70;61.60;;;;;;5073765;28;20072;-63
2022/06/07 08:30:32;;;;;;;3.47;2.60;;;19.70;61.60;;;;;;5074054;28;20040;-63
2022/06/07 08:32:59;;;;;;;4.53;2.80;;;19.70;61.60;;;;;;5072882;28;20123;-61
2022/06/07 08:38:09;;;;;;;4.25;2.70;;;19.70;61.60;;;;;;5071683;28;20412;-63
2022/06/07 08:40:43;;;;;;;4.95;2.70;;;19.70;61.60;;;;;;5073883;28;20063;-63
2022/06/07 08:43:19;;;;;;;3.28;2.60;;;19.70;61.60;;;;;;5072492;28;20480;-63
2022/06/07 08:45:45;;;;;;;4.03;2.30;;;19.70;61.60;;;;;;5071575;28;20492;-63
2022/06/07 08:48:24;;;;;;;3.72;2.33;;;19.70;61.70;;;;;;5072344;28;20048;-63
2022/06/07 08:51:06;;;;;;;4.03;2.70;;;19.70;61.70;;;;;;5072685;28;20044;-63
2022/06/07 08:53:37;;;;;;;4.45;2.78;;;19.70;61.70;;;;;;5072759;28;20036;-63
2022/06/07 08:56:04;;;;;;;4.38;2.55;;;19.70;61.70;;;;;;5072202;28;20112;-63
2022/06/07 08:58:34;;;;;;;5.82;2.97;;;19.70;61.70;;;;;;5073556;28;20122;-62
2022/06/07 09:01:18;;;;;;;3.92;2.78;;;19.70;61.70;;;;;;5071300;28;20084;-63
2022/06/07 09:04:19;;;;;;;5.82;2.95;;;19.70;61.70;;;;;;5074142;28;20055;-63
2022/06/07 09:06:48;;;;;;;5.05;2.78;;;19.70;61.70;;;;;;5070683;28;20048;-63
2022/06/07 09:09:15;;;;;;;4.20;2.40;;;19.70;61.70;;;;;;5073297;28;20131;-63
2022/06/07 09:12:14;;;;;;;5.70;3.13;;;19.70;61.70;;;;;;5072824;28;20436;-63
2022/06/07 09:14:59;;;;;;;5.68;2.90;;;19.70;61.70;;;;;;5064199;28;20068;-63
2022/06/07 09:17:38;;;;;;;3.95;2.70;;;19.70;61.70;;;;;;5073129;28;20036;-63
2022/06/07 09:20:14;;;;;;;6.53;3.15;;;19.60;61.70;;;;;;5073113;28;20111;-63
2022/06/07 09:22:54;;;;;;;4.45;2.65;;;19.60;61.70;;;;;;5072616;28;20075;-63
2022/06/07 09:25:39;;;;;;;5.65;3.33;;;19.70;61.70;;;;;;5071500;28;20561;-63
2022/06/07 09:28:06;;;;;;;4.72;2.80;;;19.70;61.70;;;;;;5071807;28;20076;-63
2022/06/07 09:30:43;;;;;;;4.10;2.83;;;19.70;61.70;;;;;;5071575;28;20519;-62
2022/06/07 09:33:22;;;;;;;4.20;2.97;;;19.60;61.60;;;;;;5071634;28;20036;-62
2022/06/07 09:35:48;;;;;;;5.00;2.90;;;19.60;61.70;;;;;;5071694;28;20055;-62
2022/06/07 09:38:40;;;;;;;4.43;3.10;;;19.60;61.80;;;;;;5072191;28;20057;-62
2022/06/07 09:41:36;;;;;;;5.68;3.00;;;19.70;61.80;;;;;;5071333;28;20049;-62
2022/06/07 09:44:21;;;;;;;4.80;2.75;;;19.60;61.80;;;;;;5072193;28;20052;-62
2022/06/07 09:46:51;;;;;;;4.07;2.92;;;19.60;61.70;;;;;;5071254;28;20051;-63
2022/06/07 09:49:40;;;;;;;4.80;3.00;;;19.60;61.70;;;;;;5071907;28;20052;-62
2022/06/07 09:52:24;;;;;;;3.38;2.90;;;19.70;61.70;;;;;;5072428;28;20131;-62
2022/06/07 09:54:55;;;;;;;4.72;3.00;;;19.60;61.70;;;;;;5072212;28;20040;-62
2022/06/07 09:57:40;;;;;;;4.82;3.05;;;19.60;61.60;;;;;;5070396;28;20060;-62
2022/06/07 10:00:11;;;;;;;5.38;2.92;;;19.70;61.60;;;;;;5072460;28;20090;-63
2022/06/07 10:03:00;;;;;;;4.25;2.55;;;19.70;61.70;;;;;;5071549;28;20056;-62
2022/06/07 10:05:35;;;;;;;4.95;3.15;;;19.70;61.70;;;;;;5072420;28;20452;-63
2022/06/07 10:08:43;;;;;;;5.57;3.35;;;19.70;61.70;;;;;;5072126;28;20101;-62
2022/06/07 10:11:28;;;;;;;5.60;3.20;;;19.60;61.60;;;;;;5029474;28;20049;-63
2022/06/07 10:14:06;;;;;;;4.55;2.95;;;19.70;61.70;;;;;;5086153;28;20059;-62
2022/06/07 10:16:48;;;;;;;4.47;3.20;;;19.70;61.70;;;;;;5071528;28;20052;-63
2022/06/07 10:19:32;;;;;;;5.45;3.15;;;19.70;61.80;;;;;;5074778;28;20497;-62
2022/06/07 10:22:07;;;;;;;4.32;2.88;;;19.70;61.70;;;;;;5074915;28;20057;-63
2022/06/07 10:24:54;;;;;;;5.30;3.25;;;19.80;61.80;;;;;;5074622;28;20060;-62
2022/06/07 10:27:29;;;;;;;4.38;3.00;;;19.80;61.80;;;;;;5075077;28;20060;-63
2022/06/07 10:30:15;;;;;;;4.03;3.00;;;19.80;61.70;;;;;;5074867;28;20044;-63
2022/06/07 10:32:49;;;;;;;6.43;3.28;;;19.80;61.60;;;;;;5075446;28;20048;-63
2022/06/07 10:35:41;;;;;;;5.25;3.13;;;19.80;61.60;;;;;;5075571;28;20500;-63
2022/06/07 10:38:49;;;;;;;5.18;3.38;;;19.80;61.50;;;;;;5070773;28;20057;-63
2022/06/07 10:41:41;;;;;;;6.32;2.92;;;19.80;61.40;;;;;;5042347;28;20052;-63
2022/06/07 10:44:09;;;;;;;5.20;3.15;;;19.80;61.40;;;;;;5074272;28;20095;-63
2022/06/07 10:46:37;;;;;;;;;;;19.90;61.40;;;;;;5075886;28;20052;-62
2022/06/07 10:49:15;;;;;;;6.60;3.20;;;19.80;61.30;;;;;;5074376;28;19974;-62
2022/06/07 10:54:54;;;;;;;4.82;3.08;;;19.90;61.40;;;;;;5074620;28;20415;-63
2022/06/07 10:57:36;;;;;;;5.28;2.78;;;19.90;61.30;;;;;;5075670;28;20076;-63
2022/06/07 11:00:30;;;;;;;3.88;2.72;;;19.90;61.30;;;;;;5074366;28;20045;-62
2022/06/07 11:03:01;;;;;;;5.10;2.67;;;19.90;61.30;;;;;;5074285;28;20127;-63
2022/06/07 11:11:07;;;;;;;5.97;3.40;;;19.90;61.30;;;;;;5075535;28;19920;-62
2022/06/07 11:13:57;;;;;;;5.32;2.80;;;19.90;61.20;;;;;;5073902;28;20048;-63
2022/06/07 11:16:43;;;;;;;5.28;3.30;;;19.90;61.20;;;;;;5055828;28;20102;-63
2022/06/07 11:19:09;;;;;;;4.90;3.00;;;19.90;61.40;;;;;;5074071;28;20549;-62
2022/06/07 11:21:36;;;;;;;5.13;2.90;;;19.90;61.30;;;;;;5073048;28;20056;-62
2022/06/07 11:24:15;;;;;;;4.82;3.17;;;20.00;61.30;;;;;;5074034;28;20048;-62
2022/06/07 11:26:52;;;;;;;4.90;3.15;;;19.90;61.20;;;;;;5075209;28;20071;-63
2022/06/07 11:29:23;;;;;;;5.13;3.10;;;19.90;61.30;;;;;;5074867;28;20106;-62
2022/06/07 11:31:49;;;;;;;6.78;3.42;;;19.90;61.30;;;;;;5075062;28;20135;-63
2022/06/07 11:34:31;;;;;;;5.60;3.33;;;19.90;61.30;;;;;;5074118;28;20135;-63
2022/06/07 11:36:57;;;;;;;5.50;3.03;;;19.90;61.20;;;;;;5073677;28;20549;-62
2022/06/07 11:39:29;;;;;;;6.35;2.97;;;20.00;61.30;;;;;;5074963;28;20044;-62
2022/06/07 11:42:07;;;;;;;4.90;2.92;;;20.00;61.30;;;;;;5074110;28;20040;-63
2022/06/07 11:44:37;;;;;;;5.10;3.17;;;20.00;61.30;;;;;;5074949;28;20041;-63
2022/06/07 11:47:12;;;;;;;5.85;2.95;;;20.00;61.40;;;;;;5074930;28;20147;-64
2022/06/07 11:49:57;;;;;;;5.18;3.38;;;20.00;61.30;;;;;;5074103;28;20131;-62
2022/06/07 11:52:33;;;;;;;4.95;2.85;;;20.00;61.30;;;;;;5073768;28;20048;-62
2022/06/07 11:55:19;;;;;;;4.72;3.25;;;20.00;61.30;;;;;;5073145;28;20054;-62
2022/06/07 11:57:54;;;;;;;5.30;3.15;;;20.10;61.30;;;;;;5074153;28;20444;-62
2022/06/07 12:00:19;;;;;;;6.10;3.35;;;20.10;61.30;;;;;;5074901;28;20123;-62
2022/06/07 12:02:57;;;;;;;4.80;2.90;;;20.10;61.30;;;;;;5073530;28;20136;-62
2022/06/07 12:05:54;;;;;;;5.97;3.00;;;20.10;61.30;;;;;;5074611;28;20036;-62
2022/06/07 12:08:25;;;;;;;4.75;2.88;;;20.10;61.20;;;;;;5073180;28;20082;-62
2022/06/07 12:11:21;;;;;;;6.60;3.00;;;20.10;61.30;;;;;;5073371;28;20045;-62
2022/06/07 12:13:56;;;;;;;5.28;3.10;;;20.10;61.30;;;;;;5072902;28;20044;-62
2022/06/07 12:16:21;;;;;;;5.15;3.80;;;20.10;61.30;;;;;;5073500;28;20494;-62
2022/06/07 12:18:51;;;;;;;5.10;3.00;;;20.20;61.40;;;;;;5074012;28;20127;-63
2022/06/07 12:21:17;;;;;;;5.95;3.13;;;20.20;61.40;;;;;;5074086;28;20052;-63
2022/06/07 12:23:44;;;;;;;3.75;2.63;;;20.20;61.40;;;;;;5071797;28;20105;-63
2022/06/07 12:26:23;;;;;;;5.30;3.17;;;20.20;61.40;;;;;;5072995;28;20502;-63
2022/06/07 12:28:55;;;;;;;5.32;3.00;;;20.20;61.40;;;;;;5072703;28;20119;-63
2022/06/07 12:31:32;;;;;;;5.85;3.30;;;20.20;61.50;;;;;;5073386;28;20049;-63
2022/06/07 12:34:02;;;;;;;4.53;2.97;;;20.20;61.40;;;;;;5073594;28;20040;-63
2022/06/07 12:36:32;;;;;;;4.97;2.70;;;20.30;61.50;;;;;;5073863;28;20167;-63
2022/06/07 12:39:01;;;;;;;4.45;2.90;;;20.30;61.50;;;;;;5071435;28;20098;-62
2022/06/07 12:41:27;;;;;;;5.10;2.60;;;20.30;61.50;;;;;;5071737;28;20083;-63
2022/06/07 12:43:57;;;;;;;4.22;2.90;;;20.30;61.60;;;;;;5073556;28;20079;-63
2022/06/07 12:46:27;;;;;;;4.97;3.00;;;20.30;61.60;;;;;;5073222;28;20047;-63
2022/06/07 12:48:53;;;;;;;4.28;2.97;;;20.30;61.60;;;;;;5073534;28;20167;-63
2022/06/07 12:51:37;;;;;;;4.30;2.80;;;20.40;61.60;;;;;;5071932;28;20754;-63
2022/06/07 12:54:17;;;;;;;4.82;2.97;;;20.40;61.60;;;;;;5073068;28;20491;-62
2022/06/07 12:56:44;;;;;;;4.82;3.15;;;20.40;61.60;;;;;;5072216;28;20047;-62
2022/06/07 12:59:37;;;;;;;5.82;2.85;;;20.50;61.60;;;;;;5071713;28;20090;-62
2022/06/07 13:02:16;;;;;;;5.03;2.60;;;20.50;61.50;;;;;;5080939;28;20416;-62
2022/06/07 13:04:53;;;;;;;3.97;2.30;;;20.50;61.50;;;;;;5071915;28;20044;-64
2022/06/07 13:07:22;;;;;;;5.50;2.88;;;20.50;61.50;;;;;;5071408;28;20547;-62
2022/06/07 13:09:53;;;;;;;5.95;3.10;;;20.50;61.50;;;;;;5071434;28;20113;-62
2022/06/07 13:12:27;;;;;;;3.90;2.83;;;20.50;61.50;;;;;;5072377;28;20396;-63
2022/06/07 13:14:52;;;;;;;4.55;2.58;;;20.50;61.60;;;;;;5071625;28;20131;-63
2022/06/07 13:17:56;;;;;;;5.00;2.67;;;20.60;61.60;;;;;;5072095;28;20115;-63
2022/06/07 13:20:29;;;;;;;5.38;3.10;;;20.60;61.60;;;;;;5065752;28;20052;-63
2022/06/07 13:22:54;;;;;;;4.50;2.60;;;20.60;61.50;;;;;;5072457;28;20052;-63
2022/06/07 13:25:31;;;;;;;5.20;3.00;;;20.60;61.50;;;;;;5071495;28;20067;-63